Time;durP1;ratioP1;P1;durP2;ratioP2;P2;SDS_P1;SDS_P2;PMS_P1;PMS_P2;Temp;Humidity;BMP_temperature;BMP_pressure;BME280_temperature;BME280_humidity;BME280_pressure;Samples;Min_cycle;Max_cycle;Signal;HPM_P1;HPM_P2
2022/07/04 00:00:35;;;;;;;4.72;3.30;;;;;;;22.99;43.96;99596.84;5072677;28;20056;-77
2022/07/04 00:03:00;;;;;;;8.77;3.97;;;;;;;22.92;43.90;99592.00;5071976;28;20061;-77
2022/07/04 00:05:25;;;;;;;5.18;3.42;;;;;;;22.21;45.31;99603.31;5071752;28;20027;-77
2022/07/04 00:07:51;;;;;;;5.57;3.58;;;;;;;22.49;44.96;99590.22;5072144;28;20025;-77
2022/07/04 00:10:20;;;;;;;5.25;3.35;;;;;;;22.81;44.73;99602.66;5072308;28;20032;-77
2022/07/04 00:12:47;;;;;;;4.70;3.13;;;;;;;22.87;44.57;99592.47;5071255;28;20032;-77
2022/07/04 00:15:13;;;;;;;17.33;4.55;;;;;;;22.79;44.78;99583.13;5071522;28;20028;-77
2022/07/04 00:17:39;;;;;;;10.30;3.55;;;;;;;23.06;44.65;99596.00;5057849;28;20108;-77
2022/07/04 00:20:07;;;;;;;9.68;3.22;;;;;;;22.94;44.67;99594.47;5071354;28;20116;-77
2022/07/04 00:22:32;;;;;;;4.82;3.38;;;;;;;23.04;44.75;99598.47;5072812;28;20426;-76
2022/07/04 00:24:58;;;;;;;8.52;3.78;;;;;;;22.86;44.92;99588.78;5072633;28;20028;-77
2022/07/04 00:27:24;;;;;;;5.75;3.78;;;;;;;22.27;46.42;99581.72;5071742;28;20091;-77
2022/07/04 00:29:50;;;;;;;10.00;4.93;;;;;;;21.95;47.85;99578.97;5071855;28;20080;-78
2022/07/04 00:32:16;;;;;;;10.48;4.40;;;;;;;21.75;48.93;99568.03;5071847;28;20035;-77
2022/07/04 00:34:41;;;;;;;7.32;3.88;;;;;;;21.10;50.35;99579.41;5072899;28;20467;-77
2022/07/04 00:37:07;;;;;;;14.07;3.65;;;;;;;20.99;51.27;99585.06;5068079;28;20483;-77
2022/07/04 00:39:33;;;;;;;7.43;3.70;;;;;;;20.50;51.97;99576.00;5070424;28;20055;-76
2022/07/04 00:41:58;;;;;;;5.47;3.22;;;;;;;20.38;52.05;99591.38;5064441;28;20028;-77
2022/07/04 00:44:24;;;;;;;5.70;3.53;;;;;;;20.06;52.56;99590.84;5052754;28;20051;-76
2022/07/04 00:46:50;;;;;;;6.15;3.60;;;;;;;20.22;52.63;99584.00;5071085;28;20060;-77
2022/07/04 00:49:17;;;;;;;8.10;3.60;;;;;;;20.20;52.80;99577.91;5071113;28;20032;-76
2022/07/04 00:51:44;;;;;;;7.55;4.30;;;;;;;20.48;52.29;99584.91;5069405;28;20021;-77
2022/07/04 00:54:13;;;;;;;5.95;3.83;;;;;;;20.58;52.14;99578.47;5071049;28;20025;-77
2022/07/04 00:56:40;;;;;;;17.92;3.58;;;;;;;20.80;51.54;99584.22;5071916;28;20032;-77
2022/07/04 00:59:06;;;;;;;7.60;4.25;;;;;;;20.71;52.05;99586.63;5067552;28;20020;-76
2022/07/04 01:01:32;;;;;;;8.07;3.72;;;;;;;20.54;52.29;99571.97;5070435;28;20131;-76
2022/07/04 01:03:58;;;;;;;8.80;4.28;;;;;;;20.59;52.45;99582.94;5070598;28;20040;-76
2022/07/04 01:06:24;;;;;;;16.92;4.03;;;;;;;20.29;53.33;99581.22;5071459;28;20031;-77
2022/07/04 01:08:50;;;;;;;4.25;3.75;;;;;;;20.05;53.83;99572.19;5071077;28;20031;-77
2022/07/04 01:11:16;;;;;;;11.63;4.30;;;;;;;20.13;53.78;99572.19;5070013;28;20647;-77
2022/07/04 01:13:42;;;;;;;4.05;3.65;;;;;;;20.15;53.28;99578.28;5066909;28;20032;-77
2022/07/04 01:16:09;;;;;;;12.18;3.35;;;;;;;20.01;53.68;99573.38;5070447;28;20043;-76
2022/07/04 01:18:35;;;;;;;11.80;4.05;;;;;;;20.17;53.31;99573.84;5070552;28;20025;-76
2022/07/04 01:21:01;;;;;;;6.47;3.95;;;;;;;20.08;53.31;99552.72;5069948;28;20036;-77
2022/07/04 01:23:26;;;;;;;11.32;3.95;;;;;;;20.22;52.73;99544.25;5069727;28;20387;-77
2022/07/04 01:25:52;;;;;;;6.43;3.83;;;;;;;19.98;53.02;99555.09;5070819;28;20040;-77
2022/07/04 01:28:19;;;;;;;8.50;4.25;;;;;;;20.04;52.80;99562.03;5056823;28;20037;-77
2022/07/04 01:30:45;;;;;;;7.22;4.05;;;;;;;20.32;52.20;99551.19;5050705;28;20049;-76
2022/07/04 01:33:10;;;;;;;6.72;4.72;;;;;;;20.77;51.32;99540.34;5050316;28;20029;-78
2022/07/04 01:35:36;;;;;;;4.35;3.92;;;;;;;20.95;50.34;99536.78;5069528;28;20642;-77
2022/07/04 01:38:01;;;;;;;10.27;3.17;;;;;;;21.24;50.44;99530.28;5070602;28;20029;-77
2022/07/04 01:40:27;;;;;;;7.38;4.00;;;;;;;21.36;49.79;99532.72;5071324;28;20066;-77
2022/07/04 01:42:53;;;;;;;6.72;4.75;;;;;;;21.52;49.16;99528.63;5071222;28;20041;-77
2022/07/04 01:45:18;;;;;;;8.95;3.75;;;;;;;21.67;49.16;99535.94;5070490;28;20403;-77
2022/07/04 01:47:44;;;;;;;6.03;3.78;;;;;;;21.71;48.95;99533.88;5071779;28;20036;-77
2022/07/04 01:50:13;;;;;;;8.18;3.78;;;;;;;21.61;49.78;99546.09;5070738;28;20028;-77
2022/07/04 01:52:40;;;;;;;10.98;3.83;;;;;;;21.27;50.48;99543.69;5070181;28;20112;-77
2022/07/04 01:55:07;;;;;;;13.02;4.78;;;;;;;21.21;51.16;99550.97;5068013;28;20052;-76
2022/07/04 01:57:33;;;;;;;12.40;4.32;;;;;;;20.96;51.61;99552.59;5071798;28;20402;-77
2022/07/04 02:02:42;;;;;;;5.80;4.05;;;;;;;20.03;53.66;99549.06;5051806;28;20055;-76
2022/07/04 02:05:08;;;;;;;8.57;4.60;;;;;;;19.63;55.05;99565.00;5051107;28;20504;-76
2022/07/04 02:07:34;;;;;;;14.45;5.63;;;;;;;19.48;55.69;99547.88;5051951;28;20166;-76
2022/07/04 02:09:59;;;;;;;16.30;5.55;;;;;;;19.18;56.87;99548.84;5061531;28;20494;-77
2022/07/04 02:15:09;;;;;;;16.33;5.82;;;;;;;18.95;57.72;99549.03;5066718;28;20028;-77
2022/07/04 02:17:34;;;;;;;7.22;5.32;;;;;;;18.66;59.13;99554.41;5066085;28;20395;-77
2022/07/04 02:20:00;;;;;;;10.50;6.65;;;;;;;18.55;59.73;99548.63;5070056;28;20024;-77
2022/07/04 02:22:26;;;;;;;10.35;5.40;;;;;;;18.59;59.94;99555.16;5070019;28;20024;-76
2022/07/04 02:24:51;;;;;;;11.77;5.90;;;;;;;18.50;60.04;99561.09;5070035;28;20013;-76
2022/07/04 02:27:17;;;;;;;7.68;5.00;;;;;;;18.40;59.87;99555.34;5069963;28;20021;-76
2022/07/04 02:29:43;;;;;;;15.18;5.55;;;;;;;18.54;59.76;99569.66;5071905;28;20016;-76
2022/07/04 02:32:09;;;;;;;12.30;5.57;;;;;;;18.48;59.37;99571.22;5070993;28;20051;-76
2022/07/04 02:34:34;;;;;;;7.70;4.40;;;;;;;18.41;59.88;99571.13;5071413;28;20025;-76
2022/07/04 02:37:00;;;;;;;10.15;5.10;;;;;;;18.31;59.93;99573.44;5073566;28;20150;-76
2022/07/04 02:39:25;;;;;;;13.35;5.97;;;;;;;18.29;60.24;99584.31;5073896;28;20077;-76
2022/07/04 02:41:51;;;;;;;10.35;5.05;;;;;;;18.24;60.57;99576.19;5073853;28;20016;-76
2022/07/04 02:44:16;;;;;;;9.43;4.88;;;;;;;18.34;60.61;99581.16;5072996;28;20127;-76
2022/07/04 02:46:42;;;;;;;11.07;5.28;;;;;;;18.06;61.65;99596.56;5073951;28;20132;-76
2022/07/04 02:49:08;;;;;;;11.85;5.88;;;;;;;18.27;61.69;99594.41;5075138;28;20025;-76
2022/07/04 02:51:33;;;;;;;11.82;5.85;;;;;;;18.30;61.50;99587.97;5075132;28;20505;-76
2022/07/04 02:53:59;;;;;;;7.95;4.97;;;;;;;18.40;61.49;99597.81;5074152;28;20025;-77
2022/07/04 02:56:25;;;;;;;9.95;5.38;;;;;;;18.23;62.59;99605.69;5073239;28;20074;-76
2022/07/04 02:58:51;;;;;;;6.65;5.15;;;;;;;18.08;63.48;99613.97;5072023;28;20025;-76
2022/07/04 03:01:18;;;;;;;12.02;6.30;;;;;;;17.96;63.89;99609.34;5075123;28;20035;-76
2022/07/04 03:03:43;;;;;;;13.25;5.47;;;;;;;18.13;63.82;99607.16;5073496;28;20036;-76
2022/07/04 03:06:09;;;;;;;9.32;5.28;;;;;;;18.24;63.56;99601.66;5072281;28;20082;-76
2022/07/04 03:08:35;;;;;;;11.95;6.25;;;;;;;18.30;63.62;99605.78;5073722;28;20464;-77
2022/07/04 03:11:01;;;;;;;12.45;7.05;;;;;;;18.41;63.68;99611.59;5073380;28;20028;-76
2022/07/04 03:13:26;;;;;;;8.38;6.18;;;;;;;18.55;63.41;99610.13;5073370;28;20398;-79
2022/07/04 03:15:52;;;;;;;9.05;5.70;;;;;;;18.59;63.36;99619.47;5061048;28;20028;-78
2022/07/04 03:18:19;;;;;;;8.45;6.85;;;;;;;18.75;63.34;99622.88;5063318;28;20533;-76
2022/07/04 03:20:44;;;;;;;13.30;6.88;;;;;;;18.80;62.83;99616.91;5074213;28;20423;-77
2022/07/04 03:29:13;;;;;;;9.77;7.10;;;;;;;19.00;62.35;99610.25;5071246;28;20052;-80
2022/07/04 03:31:39;;;;;;;10.07;6.78;;;;;;;19.03;62.03;99612.28;5070297;28;20036;-80
2022/07/04 03:34:04;;;;;;;15.43;6.45;;;;;;;19.13;61.72;99600.25;5072097;28;20025;-80
2022/07/04 03:36:30;;;;;;;9.68;6.68;;;;;;;19.11;61.65;99591.31;5073545;28;20134;-80
2022/07/04 03:38:55;;;;;;;14.18;6.55;;;;;;;19.14;61.71;99606.75;5073503;28;20020;-80
2022/07/04 03:41:21;;;;;;;29.08;8.02;;;;;;;19.14;61.19;99603.91;5071326;28;20029;-80
2022/07/04 03:43:46;;;;;;;14.25;6.20;;;;;;;19.20;60.95;99596.66;5073442;28;20029;-80
2022/07/04 03:46:12;;;;;;;10.23;6.13;;;;;;;18.84;62.02;99594.28;5071702;28;20033;-80
2022/07/04 03:48:37;;;;;;;10.10;6.15;;;;;;;18.98;61.63;99604.13;5053382;28;20035;-80
2022/07/04 03:51:03;;;;;;;16.63;5.75;;;;;;;19.11;61.31;99599.00;5050044;28;20412;-80
2022/07/04 03:53:28;;;;;;;11.85;6.32;;;;;;;19.14;60.64;99584.88;5049811;28;20021;-80
2022/07/04 03:55:54;;;;;;;8.82;5.97;;;;;;;19.08;61.25;99606.28;5062646;28;20040;-80
2022/07/04 03:58:19;;;;;;;11.73;6.47;;;;;;;19.04;61.21;99608.25;5070640;28;20028;-80
2022/07/04 04:00:45;;;;;;;18.02;5.45;;;;;;;19.03;61.07;99604.63;5066026;28;20517;-80
2022/07/04 04:05:55;;;;;;;11.57;5.55;;;;;;;18.98;62.50;99601.28;5072861;28;20047;-80
2022/07/04 04:08:22;;;;;;;8.85;6.50;;;;;;;18.84;62.78;99596.28;5071595;28;20132;-80
2022/07/04 04:10:49;;;;;;;16.05;7.20;;;;;;;18.97;62.77;99602.50;5070454;28;20059;-80
2022/07/04 04:13:14;;;;;;;11.15;5.90;;;;;;;18.84;63.10;99599.94;5071896;28;20024;-80
2022/07/04 04:15:40;;;;;;;15.10;6.50;;;;;;;18.84;63.35;99591.44;5070467;28;20041;-80
2022/07/04 04:18:05;;;;;;;14.13;6.32;;;;;;;18.94;63.33;99604.91;5069362;28;20414;-80
2022/07/04 04:20:31;;;;;;;16.45;6.35;;;;;;;19.03;63.54;99596.13;5070797;28;20033;-81
2022/07/04 04:22:56;;;;;;;11.32;6.90;;;;;;;19.20;62.96;99600.31;5065055;28;20117;-80
2022/07/04 04:25:22;;;;;;;11.60;6.97;;;;;;;19.34;62.05;99605.28;5058242;28;20040;-81
2022/07/04 04:27:47;;;;;;;22.08;6.22;;;;;;;19.51;61.54;99608.69;5052361;28;20045;-80
2022/07/04 04:30:13;;;;;;;23.40;6.82;;;;;;;19.42;60.37;99591.97;5050900;28;20029;-79
2022/07/04 04:32:39;;;;;;;18.70;6.32;;;;;;;19.48;60.17;99593.25;5050975;28;20024;-80
2022/07/04 04:35:04;;;;;;;7.63;5.10;;;;;;;19.59;59.94;99607.50;5050578;28;20035;-80
2022/07/04 04:37:30;;;;;;;9.10;5.07;;;;;;;19.70;59.27;99596.25;5050910;28;20125;-80
2022/07/04 04:39:55;;;;;;;12.55;5.63;;;;;;;19.92;57.97;99605.75;5050233;28;20039;-81
2022/07/04 04:42:21;;;;;;;9.05;4.97;;;;;;;19.94;57.19;99596.84;5050925;28;20476;-81
2022/07/04 04:44:46;;;;;;;13.23;5.10;;;;;;;20.11;55.62;99605.84;5050916;28;20024;-81
2022/07/04 04:47:12;;;;;;;11.60;5.10;;;;;;;20.22;54.96;99609.56;5050469;28;20028;-80
2022/07/04 04:49:38;;;;;;;17.05;5.53;;;;;;;20.38;54.87;99611.25;5050583;28;20485;-80
2022/07/04 04:52:03;;;;;;;11.93;4.45;;;;;;;20.60;54.80;99603.66;5052119;28;20036;-81
2022/07/04 04:54:29;;;;;;;8.02;4.15;;;;;;;20.76;54.50;99600.47;5051310;28;20028;-81
2022/07/04 04:56:54;;;;;;;13.55;4.82;;;;;;;20.88;54.60;99602.94;5050737;28;20418;-80
2022/07/04 04:59:20;;;;;;;8.10;4.90;;;;;;;20.85;54.35;99595.22;5049814;28;20044;-80
2022/07/04 05:01:45;;;;;;;8.82;4.75;;;;;;;21.04;53.78;99596.06;5050093;28;20124;-80
2022/07/04 05:04:11;;;;;;;10.25;5.28;;;;;;;21.25;54.37;99591.63;5048780;28;20020;-80
2022/07/04 05:06:36;;;;;;;9.10;5.25;;;;;;;21.09;55.30;99597.69;5049876;28;20423;-81
2022/07/04 05:09:02;;;;;;;8.00;4.85;;;;;;;21.37;54.35;99591.22;5051694;28;20111;-81
2022/07/04 05:11:28;;;;;;;14.77;5.03;;;;;;;21.49;53.41;99606.25;5049362;28;20067;-80
2022/07/04 05:13:53;;;;;;;5.60;4.70;;;;;;;21.47;53.85;99606.66;5049095;28;20021;-80
2022/07/04 05:16:19;;;;;;;9.65;4.70;;;;;;;21.78;52.75;99600.56;5048056;28;20087;-79
2022/07/04 05:18:44;;;;;;;8.13;4.60;;;;;;;21.59;54.18;99599.72;5044114;28;20029;-80
2022/07/04 05:21:09;;;;;;;16.45;4.53;;;;;;;21.78;52.50;99589.19;5056432;28;20052;-80
2022/07/04 05:23:35;;;;;;;10.30;4.63;;;;;;;21.95;52.83;99599.72;5044946;28;20052;-80
2022/07/04 05:26:00;;;;;;;14.30;6.07;;;;;;;22.08;52.57;99590.72;5049969;28;20028;-80
2022/07/04 05:28:26;;;;;;;13.32;5.05;;;;;;;22.08;52.38;99582.19;5051135;28;20106;-81
2022/07/04 05:30:51;;;;;;;11.73;4.97;;;;;;;22.26;51.56;99584.97;5047453;28;20123;-80
2022/07/04 05:33:17;;;;;;;10.15;5.07;;;;;;;22.53;51.45;99587.34;5049179;28;20025;-79
2022/07/04 05:35:43;;;;;;;7.00;5.32;;;;;;;22.93;50.51;99584.28;5050982;28;20606;-80
2022/07/04 05:38:08;;;;;;;18.40;5.80;;;;;;;23.11;49.82;99582.09;5047840;28;20036;-79
2022/07/04 05:40:34;;;;;;;10.27;5.13;;;;;;;23.28;47.88;99588.13;5065858;28;20029;-80
2022/07/04 05:42:59;;;;;;;6.80;4.57;;;;;;;23.19;48.59;99579.22;5049461;28;20028;-80
2022/07/04 05:45:25;;;;;;;12.32;4.93;;;;;;;23.37;48.75;99581.94;5044652;28;20029;-80
2022/07/04 05:47:50;;;;;;;6.00;3.92;;;;;;;23.66;46.92;99593.94;5061217;28;20032;-80
2022/07/04 05:50:16;;;;;;;9.20;3.67;;;;;;;23.83;45.19;99585.59;5058189;28;20120;-80
2022/07/04 05:52:41;;;;;;;10.00;4.30;;;;;;;24.00;44.66;99591.53;5045964;28;20029;-79
2022/07/04 05:55:08;;;;;;;8.68;4.25;;;;;;;23.87;44.57;99592.06;5051385;28;20032;-82
2022/07/04 05:57:34;;;;;;;7.88;4.13;;;;;;;24.05;41.73;99585.41;5038508;28;20040;-82
2022/07/04 06:00:00;;;;;;;9.43;4.47;;;;;;;24.02;41.30;99581.31;5049253;28;20028;-75
2022/07/04 06:02:25;;;;;;;17.17;4.28;;;;;;;24.13;41.43;99592.63;5050758;28;20609;-77
2022/07/04 06:04:51;;;;;;;7.28;3.97;;;;;;;24.22;42.31;99592.94;5049606;28;20017;-80
2022/07/04 06:07:17;;;;;;;6.63;4.53;;;;;;;23.77;42.34;99582.38;5049136;28;20108;-76
2022/07/04 06:09:43;;;;;;;12.25;4.05;;;;;;;23.86;41.21;99590.44;5051839;28;20060;-77
2022/07/04 06:12:09;;;;;;;8.95;3.88;;;;;;;24.03;42.34;99587.84;5050630;28;20029;-78
2022/07/04 06:14:34;;;;;;;7.80;3.72;;;;;;;23.80;43.07;99589.31;5052968;28;20025;-83
2022/07/04 06:17:00;;;;;;;8.75;4.40;;;;;;;23.93;42.32;99581.00;5052491;28;20518;-80
2022/07/04 06:19:25;;;;;;;4.47;3.97;;;;;;;24.09;40.85;99587.00;5053228;28;20029;-76
2022/07/04 06:21:51;;;;;;;8.07;4.72;;;;;;;24.28;40.86;99581.06;5044372;28;20407;-79
2022/07/04 06:24:16;;;;;;;8.43;4.38;;;;;;;24.21;39.29;99584.81;5053418;28;20368;-78
2022/07/04 06:26:42;;;;;;;13.35;5.40;;;;;;;24.52;40.38;99588.50;5058515;28;20032;-75
2022/07/04 06:29:07;;;;;;;6.03;4.45;;;;;;;24.48;39.46;99582.00;5053739;28;20731;-74
2022/07/04 06:31:33;;;;;;;4.82;4.40;;;;;;;24.99;39.05;99584.22;5055124;28;20033;-79
2022/07/04 06:36:44;;;;;;;8.25;3.50;;;;;;;25.27;37.34;99582.13;5053797;28;20509;-80
2022/07/04 06:39:10;;;;;;;12.95;4.35;;;;;;;25.43;37.14;99578.59;5060221;28;20423;-74
2022/07/04 06:41:35;;;;;;;11.15;4.85;;;;;;;25.33;37.44;99571.78;5054613;28;20036;-76
2022/07/04 06:44:01;;;;;;;12.18;3.65;;;;;;;25.26;35.44;99563.34;5052400;28;20034;-81
2022/07/04 06:46:26;;;;;;;6.13;3.38;;;;;;;25.65;34.24;99567.59;5053213;28;20068;-81
2022/07/04 06:48:52;;;;;;;8.35;4.30;;;;;;;25.90;34.82;99563.47;5053290;28;20029;-81
2022/07/04 06:51:19;;;;;;;12.63;3.67;;;;;;;25.91;33.85;99565.06;5052832;28;20033;-83
2022/07/04 06:53:45;;;;;;;8.82;3.92;;;;;;;26.07;33.66;99561.50;5039823;28;20463;-82
2022/07/04 06:56:11;;;;;;;21.52;4.70;;;;;;;26.22;37.05;99564.09;5053292;28;20032;-79
2022/07/04 06:58:37;;;;;;;20.73;5.75;;;;;;;26.41;37.96;99555.94;5053176;28;20081;-85
2022/07/04 07:01:02;;;;;;;13.00;5.75;;;;;;;26.31;38.26;99554.94;5053168;28;20056;-83
2022/07/04 07:03:28;;;;;;;7.55;5.00;;;;;;;26.53;38.65;99551.56;5052886;28;20025;-83
2022/07/04 07:05:56;;;;;;;7.28;4.45;;;;;;;26.81;38.51;99549.31;5052779;28;20032;-83
2022/07/04 07:08:21;;;;;;;9.85;4.00;;;;;;;26.53;36.31;99540.94;5049437;28;20029;-80
2022/07/04 07:10:47;;;;;;;7.88;4.35;;;;;;;26.68;36.12;99538.53;5051262;28;20039;-83
2022/07/04 07:13:14;;;;;;;9.82;4.18;;;;;;;26.77;35.93;99547.31;5051809;28;20028;-83
2022/07/04 07:15:39;;;;;;;10.25;4.75;;;;;;;26.67;35.11;99551.28;5045832;28;20037;-83
2022/07/04 07:18:06;;;;;;;9.57;4.05;;;;;;;26.98;35.74;99541.59;5045002;28;20418;-83
2022/07/04 07:20:31;;;;;;;5.90;4.13;;;;;;;27.05;35.17;99536.47;5053102;28;20029;-82
2022/07/04 07:22:57;;;;;;;11.63;5.18;;;;;;;27.32;36.24;99537.44;5051611;28;20033;-82
2022/07/04 07:25:22;;;;;;;9.35;4.50;;;;;;;26.92;35.39;99544.19;5052440;28;20043;-85
2022/07/04 07:27:48;;;;;;;12.48;4.70;;;;;;;27.23;35.76;99531.53;5052515;28;20045;-84
2022/07/04 07:30:13;;;;;;;10.35;4.20;;;;;;;27.22;34.80;99527.84;5052560;28;20095;-84
2022/07/04 07:32:39;;;;;;;7.70;4.22;;;;;;;27.43;34.58;99528.56;5054064;28;20100;-83
2022/07/04 07:35:05;;;;;;;9.75;4.25;;;;;;;27.73;34.21;99529.41;5052629;28;20017;-84
2022/07/04 07:37:30;;;;;;;9.35;4.30;;;;;;;27.78;33.68;99520.28;5053901;28;20024;-84
2022/07/04 07:39:56;;;;;;;9.73;4.43;;;;;;;28.04;34.07;99523.22;5053525;28;20111;-84
2022/07/04 07:42:24;;;;;;;6.28;4.22;;;;;;;27.84;34.76;99529.16;5049529;28;20029;-85
2022/07/04 07:44:49;;;;;;;19.08;4.57;;;;;;;28.05;34.29;99510.47;5034102;28;20053;-84
2022/07/04 07:47:15;;;;;;;7.07;4.53;;;;;;;27.85;34.06;99517.19;5049658;28;20483;-85
2022/07/04 07:49:41;;;;;;;7.25;4.05;;;;;;;27.80;33.83;99517.75;5045991;28;20025;-85
2022/07/04 07:52:07;;;;;;;11.35;5.35;;;;;;;27.74;34.35;99513.78;5052367;28;20036;-84
2022/07/04 07:54:34;;;;;;;10.48;5.00;;;;;;;28.09;34.25;99504.63;5053680;28;20445;-84
2022/07/04 07:57:00;;;;;;;11.55;4.18;;;;;;;28.26;34.10;99511.13;5052305;28;20045;-85
2022/07/04 07:59:25;;;;;;;14.13;4.72;;;;;;;28.65;33.93;99506.22;5052514;28;20124;-84
2022/07/04 08:01:51;;;;;;;8.65;4.90;;;;;;;28.33;33.26;99504.38;5055250;28;20025;-84
2022/07/04 08:04:34;;;;;;;8.77;4.35;;;;;;;28.51;33.35;99492.31;5052155;28;20025;-85
2022/07/04 08:07:05;;;;;;;7.65;4.28;;;;;;;28.70;32.96;99491.25;5037919;28;20047;-84
2022/07/04 08:09:31;;;;;;;22.33;5.80;;;;;;;28.97;32.62;99501.53;5056935;28;20039;-84
2022/07/04 08:11:58;;;;;;;5.55;3.83;;;;;;;29.05;31.99;99505.00;5052113;28;20025;-81
2022/07/04 08:14:24;;;;;;;8.77;4.32;;;;;;;29.09;31.40;99499.91;5040681;28;20025;-85
2022/07/04 08:16:49;;;;;;;7.65;4.25;;;;;;;29.16;31.91;99486.56;5043249;28;20039;-78
2022/07/04 08:19:15;;;;;;;8.82;4.60;;;;;;;29.45;30.94;99495.03;5053384;28;20549;-83
2022/07/04 08:21:40;;;;;;;5.88;3.90;;;;;;;29.44;31.41;99499.16;5052740;28;20024;-83
2022/07/04 08:24:06;;;;;;;5.72;4.00;;;;;;;29.60;31.09;99497.41;5051983;28;20028;-83
2022/07/04 08:26:31;;;;;;;7.97;4.20;;;;;;;29.97;30.05;99492.72;5058533;28;20059;-80
2022/07/04 08:28:59;;;;;;;7.68;4.63;;;;;;;29.69;29.65;99495.38;5066183;28;20052;-83
2022/07/04 08:31:25;;;;;;;9.93;4.25;;;;;;;29.75;29.53;99498.47;5059434;28;20407;-83
2022/07/04 08:33:52;;;;;;;16.27;4.30;;;;;;;29.97;29.36;99491.94;5035884;28;20029;-79
2022/07/04 08:36:18;;;;;;;7.97;4.35;;;;;;;30.23;30.06;99500.44;5060232;28;20597;-80
2022/07/04 08:38:44;;;;;;;11.77;4.95;;;;;;;30.19;29.68;99496.91;5037898;28;20040;-78
2022/07/04 08:41:11;;;;;;;12.13;3.97;;;;;;;30.36;29.80;99495.41;5054473;28;20476;-78
2022/07/04 08:43:39;;;;;;;5.25;3.85;;;;;;;30.45;29.49;99485.19;5057909;28;20020;-78
2022/07/04 08:46:05;;;;;;;6.95;4.43;;;;;;;30.18;29.80;99496.09;5043221;28;20365;-77
2022/07/04 08:48:33;;;;;;;8.68;4.10;;;;;;;30.63;29.70;99491.06;5049872;28;20107;-78
2022/07/04 08:51:15;;;;;;;12.85;4.20;;;;;;;31.01;29.22;99485.41;5052063;28;20063;-78
2022/07/04 08:53:54;;;;;;;5.72;4.30;;;;;;;31.20;28.48;99487.09;5053035;28;20049;-82
2022/07/04 08:59:07;;;;;;;23.35;4.90;;;;;;;31.04;29.73;99496.03;5052171;28;20039;-84
2022/07/04 09:01:33;;;;;;;184.38;97.72;;;;;;;30.98;28.70;99489.28;5055333;28;20399;-80
2022/07/04 09:04:00;;;;;;;1603.68;730.97;;;;;;;31.29;29.16;99488.41;5047951;28;20020;-78
2022/07/04 09:06:27;;;;;;;1980.03;863.25;;;;;;;31.90;28.57;99482.03;5060437;28;20488;-83
2022/07/04 09:08:53;;;;;;;231.63;113.05;;;;;;;31.02;27.52;99487.06;5050864;28;20025;-83
2022/07/04 09:11:18;;;;;;;368.08;201.13;;;;;;;31.02;26.94;99475.50;5050342;28;20028;-79
2022/07/04 09:13:44;;;;;;;360.15;165.75;;;;;;;31.12;26.64;99480.00;5050582;28;20017;-82
2022/07/04 09:16:10;;;;;;;1999.90;999.90;;;;;;;31.77;29.41;99456.16;5057718;28;20082;-80
2022/07/04 09:18:37;;;;;;;420.33;266.70;;;;;;;32.22;27.74;99471.84;5050477;28;20108;-81
2022/07/04 09:21:07;;;;;;;582.13;297.55;;;;;;;32.62;26.46;99483.66;5049609;28;20560;-80
2022/07/04 09:23:35;;;;;;;101.63;68.55;;;;;;;32.49;25.52;99478.09;5049986;28;20020;-83
2022/07/04 09:26:21;;;;;;;52.85;25.30;;;;;;;32.66;24.79;99466.94;5066580;28;20027;-80
2022/07/04 09:28:51;;;;;;;612.47;379.23;;;;;;;32.74;24.29;99467.38;5042039;28;20042;-79
2022/07/04 09:31:27;;;;;;;;;;;;;;;32.97;23.04;99468.72;5052701;28;20020;-75
2022/07/04 09:33:53;;;;;;;1999.90;736.25;;;;;;;32.73;22.20;99471.56;5048325;28;19920;-77
2022/07/04 09:36:25;;;;;;;1999.90;999.90;;;;;;;33.03;21.27;99469.66;5052027;28;20056;-77
2022/07/04 09:39:18;;;;;;;1418.05;790.30;;;;;;;33.41;22.92;99457.81;5049624;28;20108;-76
2022/07/04 09:42:00;;;;;;;38.45;27.92;;;;;;;33.39;21.10;99469.88;5040628;28;20037;-76
2022/07/04 09:44:46;;;;;;;5.68;4.15;;;;;;;33.30;20.44;99461.25;5047950;28;20021;-78
2022/07/04 09:47:27;;;;;;;10.55;2.75;;;;;;;33.24;22.42;99460.34;5034427;28;20116;-82
2022/07/04 09:50:04;;;;;;;4.15;2.55;;;;;;;33.21;22.46;99465.03;5046776;28;20650;-79
2022/07/04 09:52:31;;;;;;;5.90;3.10;;;;;;;33.31;22.68;99465.78;5046962;28;20023;-77
2022/07/04 09:55:05;;;;;;;7.90;3.10;;;;;;;33.43;22.04;99461.81;5042072;28;20026;-77
2022/07/04 09:57:32;;;;;;;9.18;3.08;;;;;;;33.30;22.71;99458.34;5054727;28;20455;-80
2022/07/04 10:00:20;;;;;;;6.45;3.47;;;;;;;33.51;23.34;99467.25;5039794;28;20048;-82
2022/07/04 10:02:46;;;;;;;7.60;3.28;;;;;;;33.40;22.63;99468.59;5062702;28;20029;-79
2022/07/04 10:05:11;;;;;;;8.85;3.78;;;;;;;33.28;22.79;99458.88;5051212;28;20400;-81
2022/07/04 10:07:43;;;;;;;6.13;2.63;;;;;;;33.31;21.98;99465.78;5045529;28;20060;-82
2022/07/04 10:10:39;;;;;;;6.68;3.10;;;;;;;33.38;22.39;99459.59;5043790;28;20025;-79
2022/07/04 10:13:10;;;;;;;7.68;2.53;;;;;;;33.56;22.37;99458.69;5046835;28;20041;-79
2022/07/04 10:15:38;;;;;;;11.88;3.30;;;;;;;33.78;22.16;99456.72;5047974;28;20028;-78
2022/07/04 10:18:05;;;;;;;3.95;3.38;;;;;;;33.64;21.68;99446.72;5046191;28;20059;-79
2022/07/04 10:20:31;;;;;;;5.30;3.25;;;;;;;33.70;21.46;99451.31;5048548;28;20081;-80
2022/07/04 10:22:57;;;;;;;4.07;3.00;;;;;;;33.57;22.32;99450.78;5048027;28;20028;-78
2022/07/04 10:25:23;;;;;;;11.52;3.95;;;;;;;33.48;21.37;99445.84;5047224;28;20035;-78
2022/07/04 10:27:51;;;;;;;3.40;2.85;;;;;;;33.59;21.37;99427.91;5046738;28;20037;-79
2022/07/04 10:30:25;;;;;;;4.20;3.22;;;;;;;33.87;21.79;99448.75;5059721;28;20522;-78
2022/07/04 10:32:52;;;;;;;3.80;2.90;;;;;;;33.85;21.59;99442.66;5045500;28;20544;-77
2022/07/04 10:35:17;;;;;;;3.15;2.60;;;;;;;33.66;21.08;99427.50;5047338;28;20066;-75
2022/07/04 10:38:00;;;;;;;10.60;4.25;;;;;;;33.53;22.15;99430.69;5044218;28;20380;-78
2022/07/04 10:40:50;;;;;;;7.60;3.03;;;;;;;33.50;22.87;99423.00;5043537;28;20028;-78
2022/07/04 10:43:33;;;;;;;13.25;3.00;;;;;;;33.49;20.79;99429.28;5046805;28;20029;-78
2022/07/04 10:46:10;;;;;;;4.90;3.25;;;;;;;33.63;20.55;99431.41;5047907;28;20031;-79
2022/07/04 10:48:36;;;;;;;4.55;3.03;;;;;;;33.60;21.30;99429.50;5063913;28;20060;-78
2022/07/04 10:51:06;;;;;;;3.78;3.10;;;;;;;33.68;21.37;99424.09;5054946;28;20060;-78
2022/07/04 10:53:52;;;;;;;3.05;2.78;;;;;;;33.63;20.38;99419.81;5048723;28;20036;-78
2022/07/04 10:56:18;;;;;;;5.72;2.60;;;;;;;33.89;20.63;99422.13;5043958;28;20043;-78
2022/07/04 10:58:44;;;;;;;8.27;3.05;;;;;;;33.83;20.35;99424.13;5051717;28;20418;-78
2022/07/04 11:01:14;;;;;;;14.27;3.67;;;;;;;33.70;20.89;99416.53;5050021;28;20039;-77
2022/07/04 11:03:53;;;;;;;6.63;2.60;;;;;;;33.89;22.40;99417.13;5050622;28;20033;-78
2022/07/04 11:06:35;;;;;;;5.07;2.58;;;;;;;34.21;21.07;99421.66;5054971;28;20568;-79
2022/07/04 11:09:16;;;;;;;9.80;3.33;;;;;;;34.11;20.56;99413.06;5046566;28;20036;-80
2022/07/04 11:12:01;;;;;;;5.43;3.47;;;;;;;34.22;20.20;99415.34;5057262;28;20031;-80
2022/07/04 11:14:30;;;;;;;4.70;3.20;;;;;;;34.18;20.54;99408.97;5052393;28;20074;-80
2022/07/04 11:16:55;;;;;;;4.28;3.35;;;;;;;34.36;20.62;99396.31;5051883;28;20033;-80
2022/07/04 11:19:22;;;;;;;10.10;3.08;;;;;;;34.48;19.57;99403.09;5052001;28;20074;-79
2022/07/04 11:21:47;;;;;;;8.00;3.00;;;;;;;34.72;19.42;99393.44;5049513;28;20025;-81
2022/07/04 11:24:13;;;;;;;4.47;3.15;;;;;;;34.99;19.45;99386.44;5038597;28;20070;-79
2022/07/04 11:26:39;;;;;;;6.10;3.22;;;;;;;35.18;19.97;99386.19;5054459;28;20029;-78
2022/07/04 11:29:04;;;;;;;14.07;3.65;;;;;;;35.00;20.07;99388.03;5038945;28;20168;-78
2022/07/04 11:31:38;;;;;;;4.03;3.50;;;;;;;34.98;20.63;99384.03;5065639;28;20029;-79
2022/07/04 11:34:04;;;;;;;6.47;2.88;;;;;;;34.94;20.12;99390.06;5050290;28;20052;-75
2022/07/04 11:36:29;;;;;;;5.10;3.03;;;;;;;34.74;21.22;99379.22;5048648;28;20499;-77
2022/07/04 11:38:58;;;;;;;5.50;3.20;;;;;;;34.52;21.02;99371.81;5049687;28;20535;-78
2022/07/04 11:47:16;;;;;;;7.10;3.35;;;;;;;34.51;22.58;99367.31;5052048;28;20573;-76
2022/07/04 11:49:56;;;;;;;8.07;3.58;;;;;;;34.73;22.61;99371.81;5050213;28;20024;-77
2022/07/04 11:52:26;;;;;;;;;;;;;;;34.70;22.91;99378.66;5047273;28;20022;-77
2022/07/04 11:54:52;;;;;;;4.53;3.08;;;;;;;34.74;23.04;99367.59;5046917;28;19921;-77